createdAt,value
2017-09-13T00:00:43.928Z,70.90
2017-09-13T00:03:11.087Z,70.80
2017-09-13T00:05:38.241Z,70.90
2017-09-13T00:08:06.188Z,70.80
2017-09-13T00:10:34.253Z,70.80
2017-09-13T00:13:01.459Z,70.90
2017-09-13T00:15:28.608Z,70.90
2017-09-13T00:17:55.760Z,70.90
2017-09-13T00:20:22.908Z,70.80
2017-09-13T00:22:50.080Z,70.90
2017-09-13T00:25:17.997Z,71.60
2017-09-13T00:27:45.138Z,70.90
2017-09-13T00:30:12.280Z,70.90
2017-09-13T00:32:39.437Z,70.90
2017-09-13T00:35:06.917Z,70.90
2017-09-13T00:37:34.066Z,70.90
2017-09-13T00:40:01.218Z,71.50
2017-09-13T00:42:28.371Z,70.80
2017-09-13T00:44:55.552Z,70.90
2017-09-13T00:47:22.702Z,70.70
2017-09-13T00:49:49.879Z,70.80
2017-09-13T00:52:17.796Z,70.70
2017-09-13T00:54:44.952Z,70.70
2017-09-13T00:57:12.096Z,70.70
2017-09-13T00:59:39.292Z,70.80
2017-09-13T01:02:07.208Z,70.90
2017-09-13T01:04:34.360Z,70.90
2017-09-13T01:07:01.516Z,70.80
2017-09-13T01:09:28.667Z,70.70
2017-09-13T01:11:56.620Z,70.80
2017-09-13T01:14:23.773Z,70.80
2017-09-13T01:16:50.919Z,70.80
2017-09-13T01:19:18.063Z,70.70
2017-09-13T01:21:45.216Z,70.70
2017-09-13T01:24:12.374Z,70.70
2017-09-13T01:26:39.539Z,70.80
2017-09-13T01:29:06.737Z,70.70
2017-09-13T01:31:35.436Z,71.50
2017-09-13T01:34:03.360Z,70.70
2017-09-13T01:36:31.440Z,70.70
2017-09-13T01:38:59.360Z,70.80
2017-09-13T01:41:27.366Z,70.70
2017-09-13T01:43:54.520Z,70.70
2017-09-13T01:46:21.673Z,70.70
2017-09-13T01:48:48.859Z,70.80
2017-09-13T01:51:16.051Z,70.70
2017-09-13T01:53:43.207Z,70.60
2017-09-13T01:56:10.406Z,70.70
2017-09-13T01:58:37.564Z,70.70
2017-09-13T02:01:04.726Z,70.60
2017-09-13T02:03:32.647Z,70.70
2017-09-13T02:05:59.803Z,70.60
2017-09-13T02:08:26.992Z,70.50
2017-09-13T02:10:54.914Z,70.60
2017-09-13T02:13:22.105Z,70.60
2017-09-13T02:15:49.287Z,70.50
2017-09-13T02:18:16.437Z,70.50
2017-09-13T02:20:43.624Z,70.50
2017-09-13T02:23:10.812Z,70.50
2017-09-13T02:25:38.004Z,70.60
2017-09-13T02:28:05.161Z,70.50
2017-09-13T02:30:32.354Z,70.60
2017-09-13T02:32:59.509Z,70.50
2017-09-13T02:35:26.693Z,70.50
2017-09-13T02:37:54.649Z,70.50
2017-09-13T02:40:22.578Z,70.70
2017-09-13T02:42:49.742Z,70.60
2017-09-13T02:45:16.936Z,70.50
2017-09-13T02:47:44.898Z,70.60
2017-09-13T02:50:12.866Z,70.50
2017-09-13T02:52:40.787Z,70.40
2017-09-13T02:55:07.950Z,70.40
2017-09-13T02:57:35.135Z,70.40
2017-09-13T03:00:03.052Z,70.40
2017-09-13T03:02:30.237Z,70.30
2017-09-13T03:04:57.419Z,70.50
2017-09-13T03:07:25.371Z,70.60
2017-09-13T03:09:53.339Z,70.90
2017-09-13T03:12:20.491Z,70.50
2017-09-13T03:14:48.414Z,71.30
2017-09-13T03:17:15.564Z,70.40
2017-09-13T03:19:42.728Z,70.30
2017-09-13T03:22:09.940Z,70.60
2017-09-13T03:24:37.102Z,70.50
2017-09-13T03:27:04.675Z,70.50
2017-09-13T03:29:31.840Z,70.30
2017-09-13T03:31:59.001Z,70.50
2017-09-13T03:34:26.950Z,70.50
2017-09-13T03:36:54.133Z,70.50
2017-09-13T03:39:21.321Z,70.50
2017-09-13T03:41:49.241Z,70.50
2017-09-13T03:44:16.433Z,70.50
2017-09-13T03:46:44.353Z,70.60
2017-09-13T03:49:11.542Z,70.60
2017-09-13T03:51:38.723Z,70.50
2017-09-13T03:54:05.877Z,70.50
2017-09-13T03:56:33.063Z,70.50
2017-09-13T03:59:00.217Z,70.50
2017-09-13T04:01:27.403Z,70.50
2017-09-13T04:03:54.560Z,70.50
2017-09-13T04:06:22.517Z,70.50
2017-09-13T04:08:49.676Z,70.50
2017-09-13T04:11:16.865Z,70.50
2017-09-13T04:13:44.056Z,70.40
2017-09-13T04:16:11.224Z,70.30
2017-09-13T04:18:38.419Z,70.60
2017-09-13T04:21:05.581Z,70.40
2017-09-13T04:23:32.773Z,70.50
2017-09-13T04:25:59.919Z,70.10
2017-09-13T04:28:27.117Z,70.40
2017-09-13T04:30:54.273Z,70.40
2017-09-13T04:33:21.429Z,70.50
2017-09-13T04:35:48.590Z,70.50
2017-09-13T04:38:15.749Z,70.60
2017-09-13T04:40:42.936Z,70.60
2017-09-13T04:43:10.090Z,70.60
2017-09-13T04:45:37.291Z,71.40
2017-09-13T04:48:04.449Z,70.80
2017-09-13T04:50:31.616Z,71.50
2017-09-13T04:52:58.808Z,71.20
2017-09-13T04:55:25.959Z,72.00
2017-09-13T04:57:53.911Z,71.40
2017-09-13T05:00:21.145Z,71.40
2017-09-13T05:02:48.320Z,71.40
2017-09-13T05:05:15.448Z,70.90
2017-09-13T05:07:42.592Z,69.80
2017-09-13T05:10:09.726Z,71.10
2017-09-13T05:12:36.848Z,71.30
2017-09-13T05:15:04.747Z,69.70
2017-09-13T05:17:31.875Z,69.70
2017-09-13T05:19:59.034Z,70.50
2017-09-13T05:22:26.161Z,70.40
2017-09-13T05:24:54.097Z,70.20
2017-09-13T05:27:21.223Z,70.20
2017-09-13T05:29:48.346Z,70.40
2017-09-13T05:32:15.476Z,69.50
2017-09-13T05:34:42.606Z,69.40
2017-09-13T05:37:09.762Z,69.80
2017-09-13T05:39:36.893Z,69.00
2017-09-13T05:42:04.021Z,68.90
2017-09-13T05:44:31.151Z,70.30
2017-09-13T05:46:58.283Z,69.90
2017-09-13T05:49:26.227Z,68.60
2017-09-13T05:51:53.348Z,68.60
2017-09-13T05:54:20.480Z,69.30
2017-09-13T05:56:47.650Z,68.80
2017-09-13T05:59:14.772Z,68.90
2017-09-13T06:01:42.708Z,68.70
2017-09-13T06:04:09.863Z,68.70
2017-09-13T06:06:36.987Z,68.60
2017-09-13T06:09:04.151Z,68.40
2017-09-13T06:14:04.775Z,68.00
2017-09-13T06:16:31.932Z,68.60
2017-09-13T06:18:59.052Z,67.80
2017-09-13T06:21:26.183Z,67.80
2017-09-13T06:23:54.103Z,67.80
2017-09-13T06:26:21.279Z,67.80
2017-09-13T06:28:48.413Z,67.80
2017-09-13T06:31:15.546Z,67.90
2017-09-13T06:33:42.708Z,68.00
2017-09-13T06:36:09.834Z,68.10
2017-09-13T06:38:36.954Z,68.10
2017-09-13T06:41:04.843Z,68.10
2017-09-13T06:43:31.999Z,68.10
2017-09-13T06:45:59.126Z,68.10
2017-09-13T06:48:27.021Z,68.30
2017-09-13T06:50:54.146Z,68.30
2017-09-13T06:53:22.085Z,68.50
2017-09-13T06:55:49.218Z,68.50
2017-09-13T06:58:16.351Z,68.60
2017-09-13T07:00:43.493Z,68.70
2017-09-13T07:03:10.619Z,68.70
2017-09-13T07:05:38.512Z,68.80
2017-09-13T07:08:05.649Z,68.70
2017-09-13T07:10:32.825Z,68.80
2017-09-13T07:12:59.952Z,68.80
2017-09-13T07:15:27.846Z,68.90
2017-09-13T07:17:54.973Z,69.50
2017-09-13T07:20:22.097Z,68.70
2017-09-13T07:22:49.996Z,69.00
2017-09-13T07:25:22.744Z,69.00
2017-09-13T07:27:50.685Z,69.20
2017-09-13T07:30:17.815Z,69.10
2017-09-13T07:32:44.945Z,69.10
2017-09-13T07:35:12.118Z,69.90
2017-09-13T07:37:39.261Z,69.20
2017-09-13T07:40:06.393Z,69.60
2017-09-13T07:42:34.287Z,69.40
2017-09-13T07:45:01.443Z,69.40
2017-09-13T07:47:28.569Z,69.40
2017-09-13T07:49:55.688Z,69.80
2017-09-13T07:52:22.852Z,69.50
2017-09-13T07:54:50.765Z,69.50
2017-09-13T07:57:17.951Z,69.60
2017-09-13T07:59:45.198Z,69.60
2017-09-13T08:02:12.356Z,69.60
2017-09-13T08:04:39.519Z,69.60
2017-09-13T08:07:07.441Z,69.70
2017-09-13T08:09:34.632Z,69.70
2017-09-13T08:12:01.864Z,69.70
2017-09-13T08:14:29.057Z,69.70
2017-09-13T08:16:56.947Z,69.80
2017-09-13T08:19:24.110Z,69.80
2017-09-13T08:21:51.268Z,69.90
2017-09-13T08:24:18.432Z,69.80
2017-09-13T08:26:45.635Z,69.90
2017-09-13T08:29:13.565Z,69.90
2017-09-13T08:31:40.720Z,69.80
2017-09-13T08:34:07.924Z,70.00
2017-09-13T08:36:35.084Z,70.00
2017-09-13T08:39:02.235Z,70.00
2017-09-13T08:41:29.388Z,70.00
2017-09-13T08:43:56.576Z,70.00
2017-09-13T08:46:27.056Z,70.00
2017-09-13T08:48:54.215Z,70.10
2017-09-13T08:51:21.377Z,70.10
2017-09-13T08:53:48.591Z,70.10
2017-09-13T08:56:16.512Z,70.20
2017-09-13T08:58:45.420Z,70.30
2017-09-13T09:01:12.599Z,70.30
2017-09-13T09:03:40.530Z,70.30
2017-09-13T09:06:07.689Z,70.30
2017-09-13T09:08:34.853Z,70.40
2017-09-13T09:11:02.011Z,70.40
2017-09-13T09:13:29.168Z,70.30
2017-09-13T09:15:57.149Z,70.40
2017-09-13T09:18:25.454Z,70.40
2017-09-13T09:20:52.688Z,70.40
2017-09-13T09:23:20.113Z,70.40
2017-09-13T09:25:48.297Z,70.50
2017-09-13T09:28:16.692Z,70.40
2017-09-13T09:30:45.652Z,70.50
2017-09-13T09:33:16.432Z,70.50
2017-09-13T09:35:43.883Z,70.70
2017-09-13T09:38:11.422Z,70.60
2017-09-13T09:40:38.841Z,70.60
2017-09-13T09:43:06.000Z,70.80
2017-09-13T09:45:33.156Z,70.80
2017-09-13T09:48:00.348Z,70.80
2017-09-13T09:50:28.317Z,71.00
2017-09-13T09:52:56.240Z,71.10
2017-09-13T09:55:23.397Z,71.10
2017-09-13T09:57:51.316Z,71.00
2017-09-13T10:00:19.243Z,71.20
2017-09-13T10:02:46.396Z,71.20
2017-09-13T10:05:15.493Z,71.10
2017-09-13T10:07:42.700Z,71.10
2017-09-13T10:10:10.816Z,71.10
2017-09-13T10:12:37.972Z,71.20
2017-09-13T10:15:05.137Z,71.10
2017-09-13T10:17:32.329Z,71.00
2017-09-13T10:19:59.488Z,71.10
2017-09-13T10:22:26.684Z,71.10
2017-09-13T10:24:53.836Z,71.20
2017-09-13T10:27:20.995Z,71.10
2017-09-13T10:29:48.155Z,71.20
2017-09-13T10:32:16.079Z,71.20
2017-09-13T10:34:43.236Z,71.10
2017-09-13T10:37:10.389Z,71.40
2017-09-13T10:39:37.541Z,71.40
2017-09-13T10:42:05.617Z,71.30
2017-09-13T10:44:32.768Z,71.50
2017-09-13T10:46:59.929Z,71.50
2017-09-13T10:49:27.112Z,71.50
2017-09-13T10:51:55.036Z,71.80
2017-09-13T10:54:22.229Z,71.70
2017-09-13T10:56:50.148Z,72.00
2017-09-13T10:59:17.307Z,71.80
2017-09-13T11:01:44.509Z,71.80
2017-09-13T11:04:12.437Z,71.90
2017-09-13T11:06:39.600Z,71.90
2017-09-13T11:09:06.753Z,72.00
2017-09-13T11:11:33.903Z,72.00
2017-09-13T11:14:01.103Z,72.20
2017-09-13T11:16:28.255Z,72.10
2017-09-13T11:18:55.408Z,72.00
2017-09-13T11:21:22.560Z,71.90
2017-09-13T11:23:49.727Z,72.00
2017-09-13T11:26:16.893Z,71.90
2017-09-13T11:28:44.044Z,71.80
2017-09-13T11:31:11.214Z,71.80
2017-09-13T11:33:38.364Z,71.80
2017-09-13T11:36:05.525Z,71.90
2017-09-13T11:38:32.681Z,72.00
2017-09-13T11:40:59.876Z,72.00
2017-09-13T11:43:27.040Z,71.80
2017-09-13T11:45:54.200Z,71.80
2017-09-13T11:48:21.366Z,72.00
2017-09-13T11:50:48.527Z,72.20
2017-09-13T11:53:23.366Z,72.10
2017-09-13T11:55:50.521Z,72.00
2017-09-13T11:58:19.397Z,72.50
2017-09-13T12:00:46.547Z,72.10
2017-09-13T12:03:13.699Z,72.10
2017-09-13T12:05:40.860Z,72.10
2017-09-13T12:08:08.015Z,72.70
2017-09-13T12:10:35.173Z,72.10
2017-09-13T12:13:03.104Z,72.10
2017-09-13T12:15:30.296Z,72.10
2017-09-13T12:17:58.228Z,72.00
2017-09-13T12:20:25.393Z,72.00
2017-09-13T12:22:52.547Z,72.00
2017-09-13T12:25:19.708Z,71.90
2017-09-13T12:27:46.868Z,72.00
2017-09-13T12:30:14.799Z,71.90
2017-09-13T12:32:41.955Z,71.70
2017-09-13T12:35:09.150Z,71.90
2017-09-13T12:37:37.071Z,71.70
2017-09-13T12:40:04.228Z,71.70
2017-09-13T12:42:31.384Z,71.60
2017-09-13T12:44:58.542Z,71.50
2017-09-13T12:47:25.729Z,71.60
2017-09-13T12:49:53.650Z,71.50
2017-09-13T12:52:20.817Z,71.50
2017-09-13T12:54:47.972Z,71.50
2017-09-13T12:57:15.120Z,71.50
2017-09-13T12:59:42.287Z,71.50
2017-09-13T13:02:10.240Z,71.50
2017-09-13T13:04:37.391Z,71.50
2017-09-13T13:07:04.551Z,71.40
2017-09-13T13:09:31.713Z,71.30
2017-09-13T13:11:59.632Z,71.30
2017-09-13T13:14:26.794Z,71.30
2017-09-13T13:16:53.951Z,71.50
2017-09-13T13:19:21.156Z,71.40
2017-09-13T13:21:48.322Z,71.50
2017-09-13T13:24:15.482Z,71.50
2017-09-13T13:26:42.639Z,71.50
2017-09-13T13:29:09.800Z,72.20
2017-09-13T13:31:36.954Z,71.60
2017-09-13T13:34:04.111Z,71.60
2017-09-13T13:36:31.345Z,71.70
2017-09-13T13:38:58.512Z,71.60
2017-09-13T13:41:25.664Z,71.50
2017-09-13T13:43:52.865Z,71.50
2017-09-13T13:46:20.793Z,71.50
2017-09-13T13:48:47.956Z,71.50
2017-09-13T13:51:15.117Z,71.50
2017-09-13T13:53:42.280Z,71.90
2017-09-13T13:56:10.199Z,71.90
2017-09-13T13:58:37.357Z,71.90
2017-09-13T14:01:04.563Z,71.60
2017-09-13T14:03:31.738Z,71.50
2017-09-13T14:05:58.900Z,71.30
2017-09-13T14:08:26.053Z,71.40
2017-09-13T14:10:53.216Z,71.00
2017-09-13T14:13:20.606Z,70.70
2017-09-13T14:15:48.531Z,70.30
2017-09-13T14:18:15.734Z,70.30
2017-09-13T14:20:43.667Z,70.00
2017-09-13T14:23:10.828Z,70.00
2017-09-13T14:25:37.987Z,70.00
2017-09-13T14:28:05.147Z,70.00
2017-09-13T14:30:33.083Z,70.00
2017-09-13T14:33:01.678Z,70.00
2017-09-13T14:35:28.842Z,70.00
2017-09-13T14:37:55.999Z,70.00
2017-09-13T14:40:23.153Z,70.10
2017-09-13T14:42:51.113Z,70.20
2017-09-13T14:45:18.274Z,70.30
2017-09-13T14:47:45.479Z,70.20
2017-09-13T14:50:12.668Z,70.20
2017-09-13T14:52:39.869Z,70.40
2017-09-13T14:55:07.030Z,70.10
2017-09-13T14:57:34.204Z,70.20
2017-09-13T15:00:01.365Z,70.40
2017-09-13T15:02:28.522Z,70.30
2017-09-13T15:04:55.707Z,70.40
2017-09-13T15:07:23.676Z,70.30
2017-09-13T15:09:51.633Z,70.40
2017-09-13T15:12:19.636Z,70.40
2017-09-13T15:14:46.809Z,70.40
2017-09-13T15:17:13.986Z,70.50
2017-09-13T15:19:41.196Z,70.70
2017-09-13T15:22:08.349Z,70.50
2017-09-13T15:24:35.508Z,70.70
2017-09-13T15:27:02.666Z,70.70
2017-09-13T15:29:29.877Z,70.70
2017-09-13T15:31:57.800Z,70.80
2017-09-13T15:34:24.966Z,70.80
2017-09-13T15:36:52.152Z,70.80
2017-09-13T15:39:20.072Z,70.80
2017-09-13T15:41:48.040Z,71.10
2017-09-13T15:44:15.203Z,71.10
2017-09-13T15:46:42.361Z,70.90
2017-09-13T15:49:09.518Z,70.90
2017-09-13T15:51:36.672Z,70.90
2017-09-13T15:54:03.831Z,71.10
2017-09-13T15:56:31.756Z,71.10
2017-09-13T15:58:58.907Z,71.00
2017-09-13T16:01:26.064Z,71.20
2017-09-13T16:03:53.275Z,71.10
2017-09-13T16:06:20.433Z,71.10
2017-09-13T16:08:47.620Z,71.00
2017-09-13T16:11:14.779Z,71.00
2017-09-13T16:13:41.967Z,71.10
2017-09-13T16:16:09.895Z,71.30
2017-09-13T16:18:37.092Z,71.20
2017-09-13T16:21:05.133Z,71.30
2017-09-13T16:23:32.301Z,71.30
2017-09-13T16:26:00.238Z,71.40
2017-09-13T16:28:27.403Z,71.30
2017-09-13T16:30:54.605Z,71.30
2017-09-13T16:33:21.762Z,71.30
2017-09-13T16:35:48.958Z,71.30
2017-09-13T16:38:16.124Z,71.30
2017-09-13T16:40:43.340Z,71.30
2017-09-13T16:43:10.501Z,71.30
2017-09-13T16:45:37.670Z,71.40
2017-09-13T16:48:04.830Z,71.50
2017-09-13T16:50:31.993Z,71.50
2017-09-13T16:52:59.974Z,71.30
2017-09-13T16:55:27.895Z,71.30
2017-09-13T16:57:55.053Z,71.30
2017-09-13T17:00:22.221Z,71.30
2017-09-13T17:02:49.424Z,71.30
2017-09-13T17:05:17.473Z,71.40
2017-09-13T17:07:45.396Z,71.40
2017-09-13T17:10:14.257Z,71.40
2017-09-13T17:12:41.440Z,71.40
2017-09-13T17:15:08.600Z,71.50
2017-09-13T17:17:35.757Z,71.50
2017-09-13T17:20:02.969Z,71.40
2017-09-13T17:22:30.128Z,71.30
2017-09-13T17:24:57.332Z,71.50
2017-09-13T17:27:25.266Z,71.50
2017-09-13T17:29:52.452Z,71.40
2017-09-13T17:32:19.652Z,71.50
2017-09-13T17:34:46.876Z,71.50
2017-09-13T17:37:14.039Z,71.40
2017-09-13T17:39:41.193Z,71.50
2017-09-13T17:42:08.396Z,71.50
2017-09-13T17:44:35.567Z,71.50
2017-09-13T17:47:03.489Z,72.10
2017-09-13T17:49:30.705Z,71.40
2017-09-13T17:51:57.869Z,71.30
2017-09-13T17:54:25.055Z,71.30
2017-09-13T17:56:52.212Z,71.40
2017-09-13T17:59:19.399Z,71.30
2017-09-13T18:01:47.320Z,71.30
2017-09-13T18:04:14.509Z,71.20
2017-09-13T18:06:41.683Z,71.30
2017-09-13T18:09:09.638Z,71.30
2017-09-13T18:11:37.608Z,71.30
2017-09-13T18:14:05.527Z,71.40
2017-09-13T18:16:32.692Z,71.30
2017-09-13T18:18:59.850Z,71.50
2017-09-13T18:21:27.012Z,71.40
2017-09-13T18:23:54.213Z,71.50
2017-09-13T18:26:21.433Z,71.60
2017-09-13T18:28:49.407Z,72.10
2017-09-13T18:31:17.364Z,71.60
2017-09-13T18:33:45.443Z,71.50
2017-09-13T18:36:12.756Z,71.50
2017-09-13T18:38:40.125Z,71.90
2017-09-13T18:41:07.651Z,71.90
2017-09-13T18:43:34.974Z,71.90
2017-09-13T18:46:03.246Z,72.10
2017-09-13T18:48:31.466Z,71.50
2017-09-13T18:51:00.332Z,71.50
2017-09-13T18:53:28.164Z,71.20
2017-09-13T18:55:56.574Z,70.20
2017-09-13T18:58:24.743Z,70.20
2017-09-13T19:00:52.509Z,69.80
2017-09-13T19:03:19.864Z,69.80
2017-09-13T19:05:48.143Z,69.10
2017-09-13T19:08:15.694Z,69.10
2017-09-13T19:10:44.816Z,69.90
2017-09-13T19:13:12.756Z,69.20
2017-09-13T19:15:40.403Z,69.30
2017-09-13T19:18:09.057Z,69.50
2017-09-13T19:20:37.460Z,69.60
2017-09-13T19:23:05.023Z,69.60
2017-09-13T19:25:32.772Z,69.70
2017-09-13T19:28:00.192Z,69.70
2017-09-13T19:30:27.443Z,69.60
2017-09-13T19:32:55.749Z,69.60
2017-09-13T19:35:23.009Z,69.60
2017-09-13T19:37:50.249Z,69.90
2017-09-13T19:40:17.565Z,69.70
2017-09-13T19:42:45.665Z,69.80
2017-09-13T19:45:12.896Z,69.80
2017-09-13T19:47:40.174Z,69.90
2017-09-13T19:50:07.616Z,69.90
2017-09-13T19:52:34.959Z,70.00
2017-09-13T19:55:03.007Z,70.00
2017-09-13T19:57:30.282Z,70.00
2017-09-13T19:59:58.487Z,70.20
2017-09-13T20:02:25.694Z,70.10
2017-09-13T20:04:52.921Z,70.10
2017-09-13T20:07:20.262Z,70.10
2017-09-13T20:09:47.519Z,70.10
2017-09-13T20:12:15.779Z,70.00
2017-09-13T20:14:43.011Z,70.00
2017-09-13T20:17:11.118Z,70.00
2017-09-13T20:19:38.421Z,70.00
2017-09-13T20:22:05.896Z,70.00
2017-09-13T20:24:33.986Z,70.00
2017-09-13T20:27:01.695Z,70.00
2017-09-13T20:29:29.809Z,70.00
2017-09-13T20:31:58.070Z,70.00
2017-09-13T20:34:27.630Z,70.00
2017-09-13T20:36:56.031Z,70.00
2017-09-13T20:39:24.827Z,70.00
2017-09-13T20:41:52.431Z,70.10
2017-09-13T20:44:20.435Z,70.00
2017-09-13T20:46:48.187Z,70.00
2017-09-13T20:49:15.361Z,70.00
2017-09-13T20:51:42.697Z,69.90
2017-09-13T20:54:09.962Z,69.90
2017-09-13T20:56:37.504Z,69.90
2017-09-13T20:59:04.824Z,70.00
2017-09-13T21:01:32.999Z,70.00
2017-09-13T21:04:00.204Z,70.00
2017-09-13T21:06:27.361Z,70.00
2017-09-13T21:08:54.569Z,70.00
2017-09-13T21:11:22.512Z,69.90
2017-09-13T21:13:49.659Z,69.80
2017-09-13T21:16:16.816Z,70.00
2017-09-13T21:18:43.969Z,70.50
2017-09-13T21:21:11.403Z,69.80
2017-09-13T21:23:38.677Z,69.80
2017-09-13T21:26:05.872Z,69.80
2017-09-13T21:28:33.837Z,69.80
2017-09-13T21:31:01.796Z,69.80
2017-09-13T21:33:29.748Z,69.90
2017-09-13T21:35:56.908Z,69.90
2017-09-13T21:38:25.097Z,70.00
2017-09-13T21:40:53.022Z,70.00
2017-09-13T21:43:20.176Z,69.90
2017-09-13T21:45:47.324Z,70.10
2017-09-13T21:48:14.525Z,70.00
2017-09-13T21:50:42.480Z,70.30
2017-09-13T21:53:10.444Z,70.30
2017-09-13T21:55:37.592Z,70.30
2017-09-13T21:58:04.746Z,70.40
2017-09-13T22:00:31.944Z,70.20
2017-09-13T22:02:59.110Z,70.50
2017-09-13T22:05:26.272Z,70.30
2017-09-13T22:07:53.423Z,70.30
2017-09-13T22:10:20.579Z,70.50
2017-09-13T22:12:47.771Z,70.20
2017-09-13T22:15:15.720Z,70.70
2017-09-13T22:17:42.880Z,70.60
2017-09-13T22:20:10.085Z,70.80
2017-09-13T22:22:37.250Z,70.30
2017-09-13T22:25:04.404Z,70.60
2017-09-13T22:27:31.557Z,70.70
2017-09-13T22:29:58.711Z,70.70
2017-09-13T22:32:25.908Z,70.60
2017-09-13T22:34:53.823Z,70.70
2017-09-13T22:37:20.975Z,70.70
2017-09-13T22:39:48.130Z,70.70
2017-09-13T22:42:15.277Z,70.90
2017-09-13T22:44:42.429Z,70.90
2017-09-13T22:47:09.583Z,70.80
2017-09-13T22:49:36.785Z,70.90
2017-09-13T22:52:04.701Z,70.90
2017-09-13T22:54:31.851Z,70.90
2017-09-13T22:56:58.999Z,70.90
2017-09-13T22:59:26.160Z,71.00
2017-09-13T23:01:53.311Z,71.20
2017-09-13T23:04:20.469Z,70.90
2017-09-13T23:06:47.668Z,71.00
2017-09-13T23:09:14.824Z,71.20
2017-09-13T23:11:41.972Z,71.10
2017-09-13T23:14:09.128Z,71.20
2017-09-13T23:16:36.296Z,71.10
2017-09-13T23:19:03.448Z,71.20
2017-09-13T23:21:30.607Z,71.20
2017-09-13T23:23:57.803Z,71.50
2017-09-13T23:26:25.727Z,71.30
2017-09-13T23:28:52.876Z,71.20
2017-09-13T23:31:20.026Z,71.50
2017-09-13T23:33:47.181Z,71.10
2017-09-13T23:38:48.655Z,71.60
2017-09-13T23:41:15.846Z,71.60
2017-09-13T23:43:43.795Z,71.90
2017-09-13T23:46:10.944Z,71.30
2017-09-13T23:48:38.916Z,71.60
2017-09-13T23:51:06.072Z,71.10
2017-09-13T23:53:33.228Z,71.40
2017-09-13T23:56:00.377Z,71.70
2017-09-13T23:58:27.532Z,71.50
